sensor_id;sensor_type;location;lat;lon;timestamp;pressure;altitude;pressure_sealevel;temperature;humidity
34081;BME280;20358;50.272;19.026;2024-01-11T00:01:59;99423.66;;;-0.44;45.72
34081;BME280;20358;50.272;19.026;2024-01-11T00:05:07;99412.59;;;-0.38;45.77
34081;BME280;20358;50.272;19.026;2024-01-11T00:08:14;99410.91;;;-0.36;45.54
34081;BME280;20358;50.272;19.026;2024-01-11T00:11:23;99403.09;;;-0.45;45.59
34081;BME280;20358;50.272;19.026;2024-01-11T00:14:29;99400.38;;;-0.59;45.44
34081;BME280;20358;50.272;19.026;2024-01-11T00:17:39;99395.06;;;-0.73;45.81
34081;BME280;20358;50.272;19.026;2024-01-11T00:20:45;99400.28;;;-0.67;46.54
34081;BME280;20358;50.272;19.026;2024-01-11T00:23:52;99395.88;;;-0.77;45.75
34081;BME280;20358;50.272;19.026;2024-01-11T00:27:00;99391.56;;;-0.81;46.39
34081;BME280;20358;50.272;19.026;2024-01-11T00:30:08;99405.31;;;-0.76;46.60
34081;BME280;20358;50.272;19.026;2024-01-11T00:33:14;99401.88;;;-0.75;46.23
34081;BME280;20358;50.272;19.026;2024-01-11T00:36:21;99385.66;;;-0.74;45.98
34081;BME280;20358;50.272;19.026;2024-01-11T00:39:27;99388.22;;;-0.74;46.33
34081;BME280;20358;50.272;19.026;2024-01-11T00:42:37;99387.34;;;-0.74;46.27
34081;BME280;20358;50.272;19.026;2024-01-11T00:45:44;99369.38;;;-0.74;46.02
34081;BME280;20358;50.272;19.026;2024-01-11T00:48:52;99369.25;;;-0.85;46.39
34081;BME280;20358;50.272;19.026;2024-01-11T00:51:58;99382.09;;;-0.86;46.41
34081;BME280;20358;50.272;19.026;2024-01-11T00:55:06;99374.38;;;-0.86;46.41
34081;BME280;20358;50.272;19.026;2024-01-11T00:58:15;99361.22;;;-1.10;46.51
34081;BME280;20358;50.272;19.026;2024-01-11T01:01:22;99369.69;;;-1.17;46.81
34081;BME280;20358;50.272;19.026;2024-01-11T01:04:28;99371.34;;;-1.21;47.06
34081;BME280;20358;50.272;19.026;2024-01-11T01:07:35;99368.81;;;-1.18;47.03
34081;BME280;20358;50.272;19.026;2024-01-11T01:10:40;99365.34;;;-1.23;47.14
34081;BME280;20358;50.272;19.026;2024-01-11T01:13:50;99365.25;;;-1.29;47.02
34081;BME280;20358;50.272;19.026;2024-01-11T01:16:56;99365.19;;;-1.32;47.37
34081;BME280;20358;50.272;19.026;2024-01-11T01:20:05;99363.50;;;-1.33;47.48
34081;BME280;20358;50.272;19.026;2024-01-11T01:23:15;99364.16;;;-1.45;47.33
34081;BME280;20358;50.272;19.026;2024-01-11T01:26:21;99363.28;;;-1.45;47.64
34081;BME280;20358;50.272;19.026;2024-01-11T01:29:30;99359.91;;;-1.44;47.88
34081;BME280;20358;50.272;19.026;2024-01-11T01:32:37;99353.03;;;-1.45;47.77
34081;BME280;20358;50.272;19.026;2024-01-11T01:35:43;99353.03;;;-1.45;47.65
34081;BME280;20358;50.272;19.026;2024-01-11T01:38:50;99347.97;;;-1.42;47.87
34081;BME280;20358;50.272;19.026;2024-01-11T01:41:56;99354.00;;;-1.39;47.68
34081;BME280;20358;50.272;19.026;2024-01-11T01:45:07;99354.84;;;-1.40;47.69
34081;BME280;20358;50.272;19.026;2024-01-11T01:48:14;99349.69;;;-1.41;47.65
34081;BME280;20358;50.272;19.026;2024-01-11T01:51:22;99359.94;;;-1.41;47.56
34081;BME280;20358;50.272;19.026;2024-01-11T01:54:32;99354.88;;;-1.38;47.81
34081;BME280;20358;50.272;19.026;2024-01-11T01:57:41;99346.31;;;-1.37;47.94
34081;BME280;20358;50.272;19.026;2024-01-11T02:00:52;99348.88;;;-1.39;47.85
34081;BME280;20358;50.272;19.026;2024-01-11T02:03:59;99337.75;;;-1.39;48.02
34081;BME280;20358;50.272;19.026;2024-01-11T02:07:07;99336.78;;;-1.49;47.58
34081;BME280;20358;50.272;19.026;2024-01-11T02:10:16;99328.91;;;-1.59;47.93
34081;BME280;20358;50.272;19.026;2024-01-11T02:13:23;99325.38;;;-1.67;48.11
34081;BME280;20358;50.272;19.026;2024-01-11T02:16:32;99314.81;;;-1.89;48.41
34081;BME280;20358;50.272;19.026;2024-01-11T02:19:38;99309.59;;;-1.95;48.55
34081;BME280;20358;50.272;19.026;2024-01-11T02:22:50;99314.72;;;-1.95;48.67
34081;BME280;20358;50.272;19.026;2024-01-11T02:26:05;99312.94;;;-1.97;48.54
34081;BME280;20358;50.272;19.026;2024-01-11T02:29:12;99306.94;;;-1.99;48.92
34081;BME280;20358;50.272;19.026;2024-01-11T02:32:18;99317.94;;;-2.05;48.92
34081;BME280;20358;50.272;19.026;2024-01-11T02:35:26;99318.00;;;-2.03;48.88
34081;BME280;20358;50.272;19.026;2024-01-11T02:38:33;99312.06;;;-1.99;48.91
34081;BME280;20358;50.272;19.026;2024-01-11T02:41:43;99304.31;;;-2.04;48.87
34081;BME280;20358;50.272;19.026;2024-01-11T02:44:50;99319.75;;;-2.01;49.10
34081;BME280;20358;50.272;19.026;2024-01-11T02:47:57;99315.59;;;-1.93;49.05
34081;BME280;20358;50.272;19.026;2024-01-11T02:51:04;99324.19;;;-1.89;48.72
34081;BME280;20358;50.272;19.026;2024-01-11T02:54:11;99319.88;;;-1.92;48.68
34081;BME280;20358;50.272;19.026;2024-01-11T02:57:20;99322.47;;;-1.89;48.40
34081;BME280;20358;50.272;19.026;2024-01-11T03:00:27;99318.22;;;-1.90;48.66
34081;BME280;20358;50.272;19.026;2024-01-11T03:03:33;99316.47;;;-1.91;48.59
34081;BME280;20358;50.272;19.026;2024-01-11T03:06:40;99299.31;;;-1.98;48.62
34081;BME280;20358;50.272;19.026;2024-01-11T03:09:46;99292.44;;;-2.00;48.86
34081;BME280;20358;50.272;19.026;2024-01-11T03:12:55;99293.31;;;-1.98;49.10
34081;BME280;20358;50.272;19.026;2024-01-11T03:16:05;99291.63;;;-1.96;49.04
34081;BME280;20358;50.272;19.026;2024-01-11T03:19:12;99296.00;;;-1.91;49.14
34081;BME280;20358;50.272;19.026;2024-01-11T03:22:18;99278.97;;;-1.85;48.92
34081;BME280;20358;50.272;19.026;2024-01-11T03:25:24;99273.91;;;-1.82;48.99
34081;BME280;20358;50.272;19.026;2024-01-11T03:28:34;99267.13;;;-1.77;48.83
34081;BME280;20358;50.272;19.026;2024-01-11T03:31:40;99279.16;;;-1.73;48.58
34081;BME280;20358;50.272;19.026;2024-01-11T03:34:48;99267.22;;;-1.71;48.67
34081;BME280;20358;50.272;19.026;2024-01-11T03:41:57;99268.00;;;-1.77;48.70
34081;BME280;20358;50.272;19.026;2024-01-11T03:45:09;99260.31;;;-1.75;48.57
34081;BME280;20358;50.272;19.026;2024-01-11T03:48:15;99275.69;;;-1.75;48.50
34081;BME280;20358;50.272;19.026;2024-01-11T03:51:22;99304.56;;;-1.89;48.24
34081;BME280;20358;50.272;19.026;2024-01-11T03:54:29;99278.69;;;-2.04;48.72
34081;BME280;20358;50.272;19.026;2024-01-11T03:57:35;99269.84;;;-2.24;48.87
34081;BME280;20358;50.272;19.026;2024-01-11T04:00:45;99272.25;;;-2.33;49.20
34081;BME280;20358;50.272;19.026;2024-01-11T04:03:51;99276.53;;;-2.32;49.55
34081;BME280;20358;50.272;19.026;2024-01-11T04:06:58;99274.91;;;-2.27;49.35
34081;BME280;20358;50.272;19.026;2024-01-11T04:10:05;99261.19;;;-2.32;49.10
34081;BME280;20358;50.272;19.026;2024-01-11T04:13:14;99264.38;;;-2.45;49.43
34081;BME280;20358;50.272;19.026;2024-01-11T04:16:22;99248.25;;;-2.39;49.55
34081;BME280;20358;50.272;19.026;2024-01-11T04:19:29;99244.00;;;-2.39;49.53
34081;BME280;20358;50.272;19.026;2024-01-11T04:22:35;99258.50;;;-2.38;49.59
34081;BME280;20358;50.272;19.026;2024-01-11T04:25:42;99261.19;;;-2.32;49.39
34081;BME280;20358;50.272;19.026;2024-01-11T04:28:48;99258.75;;;-2.24;49.25
34081;BME280;20358;50.272;19.026;2024-01-11T04:32:00;99263.03;;;-2.22;49.27
34081;BME280;20358;50.272;19.026;2024-01-11T04:35:08;99263.97;;;-2.18;49.01
34081;BME280;20358;50.272;19.026;2024-01-11T04:38:14;99259.66;;;-2.21;48.88
34081;BME280;20358;50.272;19.026;2024-01-11T04:41:20;99249.38;;;-2.24;49.09
34081;BME280;20358;50.272;19.026;2024-01-11T04:44:27;99249.44;;;-2.18;49.12
34081;BME280;20358;50.272;19.026;2024-01-11T04:47:36;99256.16;;;-2.26;48.94
34081;BME280;20358;50.272;19.026;2024-01-11T04:50:44;99254.56;;;-2.18;48.83
34081;BME280;20358;50.272;19.026;2024-01-11T04:53:51;99254.56;;;-2.18;48.83
34081;BME280;20358;50.272;19.026;2024-01-11T04:56:58;99266.59;;;-2.14;48.71
34081;BME280;20358;50.272;19.026;2024-01-11T05:00:06;99256.41;;;-2.11;48.59
34081;BME280;20358;50.272;19.026;2024-01-11T05:03:16;99244.47;;;-2.09;48.41
34081;BME280;20358;50.272;19.026;2024-01-11T05:06:23;99247.03;;;-2.09;48.60
34081;BME280;20358;50.272;19.026;2024-01-11T05:09:30;99241.09;;;-2.08;48.50
34081;BME280;20358;50.272;19.026;2024-01-11T05:12:36;99223.97;;;-2.07;48.40
34081;BME280;20358;50.272;19.026;2024-01-11T05:15:42;99217.00;;;-2.19;48.57
34081;BME280;20358;50.272;19.026;2024-01-11T05:18:52;99204.63;;;-2.47;48.91
34081;BME280;20358;50.272;19.026;2024-01-11T05:22:00;99212.47;;;-2.35;48.98
34081;BME280;20358;50.272;19.026;2024-01-11T05:25:08;99198.03;;;-2.30;49.01
34081;BME280;20358;50.272;19.026;2024-01-11T05:28:15;99207.53;;;-2.24;49.07
34081;BME280;20358;50.272;19.026;2024-01-11T05:31:20;99201.63;;;-2.19;49.04
34081;BME280;20358;50.272;19.026;2024-01-11T05:34:30;99224.75;;;-2.14;48.88
34081;BME280;20358;50.272;19.026;2024-01-11T05:37:36;99228.88;;;-2.24;48.65
34081;BME280;20358;50.272;19.026;2024-01-11T05:40:42;99245.66;;;-2.41;48.90
34081;BME280;20358;50.272;19.026;2024-01-11T05:43:48;99218.09;;;-2.57;49.48
34081;BME280;20358;50.272;19.026;2024-01-11T05:46:55;99216.38;;;-2.58;49.82
34081;BME280;20358;50.272;19.026;2024-01-11T05:50:08;99202.53;;;-2.69;49.86
34081;BME280;20358;50.272;19.026;2024-01-11T05:53:15;99191.91;;;-2.93;50.23
34081;BME280;20358;50.272;19.026;2024-01-11T05:56:23;99196.09;;;-2.97;50.46
34081;BME280;20358;50.272;19.026;2024-01-11T05:59:30;99196.06;;;-2.98;50.33
34081;BME280;20358;50.272;19.026;2024-01-11T06:02:36;99209.00;;;-2.89;50.14
34081;BME280;20358;50.272;19.026;2024-01-11T06:05:46;99153.97;;;-3.17;50.13
34081;BME280;20358;50.272;19.026;2024-01-11T06:08:52;99205.78;;;-2.79;49.99
34081;BME280;20358;50.272;19.026;2024-01-11T06:19:27;99200.00;;;-2.68;49.33
34081;BME280;20358;50.272;19.026;2024-01-11T06:22:38;99194.16;;;-2.59;49.50
34081;BME280;20358;50.272;19.026;2024-01-11T06:25:48;99194.28;;;-2.53;49.11
34081;BME280;20358;50.272;19.026;2024-01-11T06:28:54;99180.72;;;-2.47;48.93
34081;BME280;20358;50.272;19.026;2024-01-11T06:32:06;99178.25;;;-2.41;48.58
34081;BME280;20358;50.272;19.026;2024-01-11T06:35:12;99170.63;;;-2.37;48.56
34081;BME280;20358;50.272;19.026;2024-01-11T06:38:26;99164.66;;;-2.37;48.26
34081;BME280;20358;50.272;19.026;2024-01-11T06:41:32;99149.13;;;-2.48;48.20
34081;BME280;20358;50.272;19.026;2024-01-11T06:44:38;99129.50;;;-2.47;48.21
34081;BME280;20358;50.272;19.026;2024-01-11T06:47:44;99115.94;;;-2.42;48.03
34081;BME280;20358;50.272;19.026;2024-01-11T06:50:52;99111.59;;;-2.47;47.88
34081;BME280;20358;50.272;19.026;2024-01-11T06:54:07;99126.94;;;-2.47;48.11
34081;BME280;20358;50.272;19.026;2024-01-11T06:57:14;99128.69;;;-2.43;48.42
34081;BME280;20358;50.272;19.026;2024-01-11T07:00:20;99126.19;;;-2.42;48.37
34081;BME280;20358;50.272;19.026;2024-01-11T07:03:27;99131.31;;;-2.42;48.37
34081;BME280;20358;50.272;19.026;2024-01-11T07:06:33;99110.81;;;-2.42;48.05
34081;BME280;20358;50.272;19.026;2024-01-11T07:09:43;99102.63;;;-2.18;48.50
34081;BME280;20358;50.272;19.026;2024-01-11T07:12:49;99107.84;;;-2.11;47.81
34081;BME280;20358;50.272;19.026;2024-01-11T07:15:56;99092.53;;;-2.05;47.73
34081;BME280;20358;50.272;19.026;2024-01-11T07:19:02;99087.50;;;-1.99;47.75
34081;BME280;20358;50.272;19.026;2024-01-11T07:22:09;99097.78;;;-1.96;47.61
34081;BME280;20358;50.272;19.026;2024-01-11T07:25:18;99103.81;;;-1.89;47.37
34081;BME280;20358;50.272;19.026;2024-01-11T07:28:24;99093.72;;;-1.77;47.27
34081;BME280;20358;50.272;19.026;2024-01-11T07:31:30;99121.19;;;-1.67;47.68
34081;BME280;20358;50.272;19.026;2024-01-11T07:34:37;99134.25;;;-1.44;46.97
34081;BME280;20358;50.272;19.026;2024-01-11T07:37:43;99146.28;;;-1.40;46.70
34081;BME280;20358;50.272;19.026;2024-01-11T07:40:52;99151.41;;;-1.40;46.45
34081;BME280;20358;50.272;19.026;2024-01-11T07:43:58;99135.19;;;-1.36;46.47
34081;BME280;20358;50.272;19.026;2024-01-11T07:47:05;99137.09;;;-1.15;46.50
34081;BME280;20358;50.272;19.026;2024-01-11T07:50:11;99110.72;;;-1.04;46.35
34081;BME280;20358;50.272;19.026;2024-01-11T07:53:18;99103.09;;;-0.93;45.99
34081;BME280;20358;50.272;19.026;2024-01-11T07:56:27;99092.16;;;-0.70;46.09
34081;BME280;20358;50.272;19.026;2024-01-11T07:59:33;99076.69;;;-0.82;45.83
34081;BME280;20358;50.272;19.026;2024-01-11T08:02:40;99081.84;;;-0.73;45.96
34081;BME280;20358;50.272;19.026;2024-01-11T08:05:47;99059.75;;;-0.52;46.20
34081;BME280;20358;50.272;19.026;2024-01-11T08:08:54;99050.41;;;-0.38;45.88
34081;BME280;20358;50.272;19.026;2024-01-11T08:12:04;99051.38;;;-0.21;45.67
34081;BME280;20358;50.272;19.026;2024-01-11T08:15:10;99059.97;;;-0.10;45.40
34081;BME280;20358;50.272;19.026;2024-01-11T08:18:18;99035.13;;;-0.14;45.07
34081;BME280;20358;50.272;19.026;2024-01-11T08:21:24;99055.81;;;0.19;45.08
34081;BME280;20358;50.272;19.026;2024-01-11T08:24:32;99039.53;;;0.29;44.81
34081;BME280;20358;50.272;19.026;2024-01-11T08:27:40;99048.16;;;0.43;43.97
34081;BME280;20358;50.272;19.026;2024-01-11T08:30:48;99037.88;;;0.55;43.56
34081;BME280;20358;50.272;19.026;2024-01-11T08:33:54;99031.03;;;0.79;43.83
34081;BME280;20358;50.272;19.026;2024-01-11T08:37:03;99023.31;;;0.83;42.67
34081;BME280;20358;50.272;19.026;2024-01-11T08:40:10;99023.31;;;0.94;42.64
34081;BME280;20358;50.272;19.026;2024-01-11T08:43:20;99031.03;;;0.94;42.15
34081;BME280;20358;50.272;19.026;2024-01-11T08:46:26;99044.78;;;0.90;42.10
34081;BME280;20358;50.272;19.026;2024-01-11T08:49:36;99065.34;;;0.99;42.44
34081;BME280;20358;50.272;19.026;2024-01-11T08:52:42;99067.09;;;0.91;42.27
34081;BME280;20358;50.272;19.026;2024-01-11T08:55:49;99078.22;;;0.79;42.65
34081;BME280;20358;50.272;19.026;2024-01-11T08:58:58;99076.50;;;0.84;42.39
34081;BME280;20358;50.272;19.026;2024-01-11T09:02:05;99079.94;;;0.73;42.55
34081;BME280;20358;50.272;19.026;2024-01-11T09:05:19;99084.22;;;0.61;42.56
34081;BME280;20358;50.272;19.026;2024-01-11T09:08:26;99074.78;;;0.76;42.86
34081;BME280;20358;50.272;19.026;2024-01-11T09:11:32;99079.06;;;0.86;42.58
34081;BME280;20358;50.272;19.026;2024-01-11T09:14:42;99085.94;;;0.75;42.66
34081;BME280;20358;50.272;19.026;2024-01-11T09:17:49;99079.09;;;0.83;42.45
34081;BME280;20358;50.272;19.026;2024-01-11T09:20:55;99085.13;;;0.98;42.68
34081;BME280;20358;50.272;19.026;2024-01-11T09:24:03;99091.13;;;1.14;42.17
34081;BME280;20358;50.272;19.026;2024-01-11T09:27:10;99082.53;;;1.25;41.96
34081;BME280;20358;50.272;19.026;2024-01-11T09:30:18;99073.06;;;1.27;41.96
34081;BME280;20358;50.272;19.026;2024-01-11T09:33:25;99085.13;;;1.13;42.06
34081;BME280;20358;50.272;19.026;2024-01-11T09:36:32;99070.50;;;1.17;41.60
34081;BME280;20358;50.272;19.026;2024-01-11T09:39:42;99080.81;;;1.05;42.30
34081;BME280;20358;50.272;19.026;2024-01-11T09:42:47;99063.66;;;1.01;42.42
34081;BME280;20358;50.272;19.026;2024-01-11T09:45:58;99051.63;;;1.12;42.35
34081;BME280;20358;50.272;19.026;2024-01-11T09:49:09;99036.16;;;1.42;42.90
34081;BME280;20358;50.272;19.026;2024-01-11T09:52:19;99027.53;;;1.43;42.54
34081;BME280;20358;50.272;19.026;2024-01-11T09:55:28;99031.00;;;1.36;42.65
34081;BME280;20358;50.272;19.026;2024-01-11T09:58:35;99032.72;;;1.37;42.95
34081;BME280;20358;50.272;19.026;2024-01-11T10:01:45;99023.25;;;1.38;42.82
34081;BME280;20358;50.272;19.026;2024-01-11T10:04:52;99018.09;;;1.47;43.06
34081;BME280;20358;50.272;19.026;2024-01-11T10:07:59;99007.81;;;1.45;43.01
34081;BME280;20358;50.272;19.026;2024-01-11T10:11:06;99010.34;;;1.48;42.75
34081;BME280;20358;50.272;19.026;2024-01-11T10:14:13;99012.09;;;1.52;43.07
34081;BME280;20358;50.272;19.026;2024-01-11T10:17:22;99008.69;;;1.29;43.04
34081;BME280;20358;50.272;19.026;2024-01-11T10:20:29;98990.66;;;1.34;43.12
34081;BME280;20358;50.272;19.026;2024-01-11T10:23:36;99001.78;;;1.43;42.58
34081;BME280;20358;50.272;19.026;2024-01-11T10:26:43;98989.78;;;1.33;41.95
34081;BME280;20358;50.272;19.026;2024-01-11T10:29:52;98996.63;;;1.49;42.15
34081;BME280;20358;50.272;19.026;2024-01-11T10:33:01;98996.56;;;1.67;42.23
34081;BME280;20358;50.272;19.026;2024-01-11T10:36:11;98985.31;;;1.85;42.53
34081;BME280;20358;50.272;19.026;2024-01-11T10:39:17;98991.34;;;1.82;41.90
34081;BME280;20358;50.272;19.026;2024-01-11T10:42:31;98974.19;;;1.78;41.45
34081;BME280;20358;50.272;19.026;2024-01-11T10:45:40;98981.81;;;1.95;41.62
34081;BME280;20358;50.272;19.026;2024-01-11T10:48:55;98985.28;;;1.96;41.85
34081;BME280;20358;50.272;19.026;2024-01-11T10:52:07;98956.91;;;1.93;41.54
34081;BME280;20358;50.272;19.026;2024-01-11T10:55:16;98962.91;;;1.99;41.81
34081;BME280;20358;50.272;19.026;2024-01-11T10:58:24;98959.44;;;2.00;42.03
34081;BME280;20358;50.272;19.026;2024-01-11T11:01:33;98896.88;;;1.72;41.92
34081;BME280;20358;50.272;19.026;2024-01-11T11:04:44;98941.28;;;2.23;42.50
34081;BME280;20358;50.272;19.026;2024-01-11T11:07:54;98936.06;;;2.29;42.40
34081;BME280;20358;50.272;19.026;2024-01-11T11:11:04;98965.38;;;2.16;42.43
34081;BME280;20358;50.272;19.026;2024-01-11T11:14:15;98961.03;;;2.25;42.47
34081;BME280;20358;50.272;19.026;2024-01-11T11:17:21;98928.47;;;2.09;42.02
34081;BME280;20358;50.272;19.026;2024-01-11T11:20:31;98941.28;;;2.23;42.36
34081;BME280;20358;50.272;19.026;2024-01-11T11:23:40;98942.94;;;2.30;42.31
34081;BME280;20358;50.272;19.026;2024-01-11T11:26:48;98934.38;;;2.25;42.81
34081;BME280;20358;50.272;19.026;2024-01-11T11:29:55;98913.59;;;2.46;42.46
34081;BME280;20358;50.272;19.026;2024-01-11T11:33:09;98918.59;;;2.64;42.52
34081;BME280;20358;50.272;19.026;2024-01-11T11:36:18;98913.44;;;2.64;41.89
34081;BME280;20358;50.272;19.026;2024-01-11T11:39:34;98921.88;;;2.81;42.08
34081;BME280;20358;50.272;19.026;2024-01-11T11:42:42;98919.19;;;2.92;41.55
34081;BME280;20358;50.272;19.026;2024-01-11T11:45:50;98917.50;;;2.89;41.41
34081;BME280;20358;50.272;19.026;2024-01-11T11:49:02;98916.50;;;3.02;40.78
34081;BME280;20358;50.272;19.026;2024-01-11T11:52:16;98907.94;;;3.00;41.07
34081;BME280;20358;50.272;19.026;2024-01-11T11:55:23;98900.38;;;2.78;41.23
34081;BME280;20358;50.272;19.026;2024-01-11T11:58:32;98892.56;;;2.87;40.99
34081;BME280;20358;50.272;19.026;2024-01-11T12:01:40;98895.97;;;2.89;40.77
34081;BME280;20358;50.272;19.026;2024-01-11T12:04:48;98907.25;;;2.82;40.74
34081;BME280;20358;50.272;19.026;2024-01-11T12:07:56;98884.94;;;2.76;40.79
34081;BME280;20358;50.272;19.026;2024-01-11T12:11:05;98884.31;;;2.50;41.75
34081;BME280;20358;50.272;19.026;2024-01-11T12:14:11;98891.31;;;2.36;41.92
34081;BME280;20358;50.272;19.026;2024-01-11T12:17:18;98870.47;;;2.57;42.18
34081;BME280;20358;50.272;19.026;2024-01-11T12:20:24;98862.00;;;2.46;42.27
34081;BME280;20358;50.272;19.026;2024-01-11T12:23:36;98872.34;;;2.40;42.22
34081;BME280;20358;50.272;19.026;2024-01-11T12:26:44;98854.88;;;2.72;42.50
34081;BME280;20358;50.272;19.026;2024-01-11T12:29:55;98862.00;;;2.43;42.81
34081;BME280;20358;50.272;19.026;2024-01-11T12:33:03;98855.91;;;2.50;42.78
34081;BME280;20358;50.272;19.026;2024-01-11T12:36:11;98813.13;;;2.26;42.62
34081;BME280;20358;50.272;19.026;2024-01-11T12:39:20;98855.06;;;2.51;43.25
34081;BME280;20358;50.272;19.026;2024-01-11T12:42:30;98851.69;;;2.43;43.49
34081;BME280;20358;50.272;19.026;2024-01-11T12:45:39;98860.25;;;2.45;43.56
34081;BME280;20358;50.272;19.026;2024-01-11T12:48:47;98875.84;;;2.33;43.57
34081;BME280;20358;50.272;19.026;2024-01-11T12:51:55;98861.94;;;2.49;43.98
34081;BME280;20358;50.272;19.026;2024-01-11T12:55:07;98849.91;;;2.48;43.93
34081;BME280;20358;50.272;19.026;2024-01-11T12:58:23;98825.78;;;2.52;43.86
34081;BME280;20358;50.272;19.026;2024-01-11T13:01:30;98823.31;;;2.43;44.26
34081;BME280;20358;50.272;19.026;2024-01-11T13:04:37;98819.00;;;2.42;44.32
34081;BME280;20358;50.272;19.026;2024-01-11T13:07:44;98813.88;;;2.39;44.31
34081;BME280;20358;50.272;19.026;2024-01-11T13:10:53;98807.06;;;2.32;44.70
34081;BME280;20358;50.272;19.026;2024-01-11T13:13:59;98808.75;;;2.36;44.84
34081;BME280;20358;50.272;19.026;2024-01-11T13:17:09;98812.19;;;2.38;45.08
34081;BME280;20358;50.272;19.026;2024-01-11T13:20:16;98784.69;;;2.31;45.31
34081;BME280;20358;50.272;19.026;2024-01-11T13:23:23;98784.78;;;2.25;45.64
34081;BME280;20358;50.272;19.026;2024-01-11T13:26:33;98788.31;;;2.15;45.93
34081;BME280;20358;50.272;19.026;2024-01-11T13:29:39;98790.00;;;2.19;45.98
34081;BME280;20358;50.272;19.026;2024-01-11T13:32:45;98792.41;;;2.35;45.94
34081;BME280;20358;50.272;19.026;2024-01-11T13:35:54;98811.41;;;2.27;45.78
34081;BME280;20358;50.272;19.026;2024-01-11T13:39:00;98814.09;;;2.18;46.17
34081;BME280;20358;50.272;19.026;2024-01-11T13:42:09;98803.63;;;2.33;45.97
34081;BME280;20358;50.272;19.026;2024-01-11T13:45:16;98815.63;;;2.34;46.27
34081;BME280;20358;50.272;19.026;2024-01-11T13:48:22;98809.81;;;2.15;46.62
34081;BME280;20358;50.272;19.026;2024-01-11T13:51:29;98819.19;;;2.21;46.98
34081;BME280;20358;50.272;19.026;2024-01-11T13:54:47;98808.72;;;2.39;46.57
34081;BME280;20358;50.272;19.026;2024-01-11T13:57:56;98796.59;;;2.47;46.81
34081;BME280;20358;50.272;19.026;2024-01-11T14:01:03;98803.34;;;2.60;46.47
34081;BME280;20358;50.272;19.026;2024-01-11T14:04:11;98808.63;;;2.51;46.41
34081;BME280;20358;50.272;19.026;2024-01-11T14:07:16;98798.25;;;2.54;46.65
34081;BME280;20358;50.272;19.026;2024-01-11T14:10:23;98807.75;;;2.50;46.63
34081;BME280;20358;50.272;19.026;2024-01-11T14:13:33;98809.53;;;2.45;46.69
34081;BME280;20358;50.272;19.026;2024-01-11T14:16:39;98816.44;;;2.42;46.47
34081;BME280;20358;50.272;19.026;2024-01-11T14:19:46;98817.34;;;2.38;46.49
34081;BME280;20358;50.272;19.026;2024-01-11T14:22:53;98759.38;;;1.79;46.66
34081;BME280;20358;50.272;19.026;2024-01-11T14:25:59;98810.50;;;2.31;47.03
34081;BME280;20358;50.272;19.026;2024-01-11T14:29:09;98819.94;;;2.35;48.10
34081;BME280;20358;50.272;19.026;2024-01-11T14:32:15;98822.50;;;2.38;48.91
34081;BME280;20358;50.272;19.026;2024-01-11T14:35:35;98837.13;;;2.37;49.75
34081;BME280;20358;50.272;19.026;2024-01-11T14:38:42;98838.94;;;2.28;50.20
34081;BME280;20358;50.272;19.026;2024-01-11T14:41:49;98843.34;;;2.14;50.49
34081;BME280;20358;50.272;19.026;2024-01-11T14:44:58;98835.47;;;2.29;50.37
34081;BME280;20358;50.272;19.026;2024-01-11T14:48:08;98851.91;;;2.16;49.38
34081;BME280;20358;50.272;19.026;2024-01-11T14:51:21;98854.47;;;2.20;49.47
34081;BME280;20358;50.272;19.026;2024-01-11T14:54:45;98857.88;;;2.21;49.54
34081;BME280;20358;50.272;19.026;2024-01-11T14:58:08;98857.00;;;2.25;49.06
34081;BME280;20358;50.272;19.026;2024-01-11T15:01:20;98855.31;;;2.21;49.40
34081;BME280;20358;50.272;19.026;2024-01-11T15:04:26;98856.94;;;2.31;49.49
34081;BME280;20358;50.272;19.026;2024-01-11T15:07:33;98858.63;;;2.35;49.67
34081;BME280;20358;50.272;19.026;2024-01-11T15:10:39;98862.16;;;2.28;49.80
34081;BME280;20358;50.272;19.026;2024-01-11T15:13:46;98856.97;;;2.28;50.21
34081;BME280;20358;50.272;19.026;2024-01-11T15:16:55;98855.38;;;2.12;51.01
34081;BME280;20358;50.272;19.026;2024-01-11T15:20:04;98854.53;;;2.11;51.48
34081;BME280;20358;50.272;19.026;2024-01-11T15:23:11;98849.47;;;1.99;51.92
34081;BME280;20358;50.272;19.026;2024-01-11T15:26:17;98858.09;;;1.92;52.79
34081;BME280;20358;50.272;19.026;2024-01-11T15:29:23;98860.72;;;1.84;53.55
34081;BME280;20358;50.272;19.026;2024-01-11T15:32:33;98862.44;;;1.88;53.92
34081;BME280;20358;50.272;19.026;2024-01-11T15:35:39;98856.38;;;1.93;54.30
34081;BME280;20358;50.272;19.026;2024-01-11T15:38:46;98855.63;;;1.78;55.24
34081;BME280;20358;50.272;19.026;2024-01-11T15:41:54;98865.97;;;1.69;55.86
34081;BME280;20358;50.272;19.026;2024-01-11T15:45:04;98860.88;;;1.60;56.40
34081;BME280;20358;50.272;19.026;2024-01-11T15:48:13;98875.47;;;1.61;56.40
34081;BME280;20358;50.272;19.026;2024-01-11T15:51:21;98867.78;;;1.52;56.88
34081;BME280;20358;50.272;19.026;2024-01-11T15:54:28;98868.63;;;1.56;56.80
34081;BME280;20358;50.272;19.026;2024-01-11T15:57:35;98879.88;;;1.43;56.56
34081;BME280;20358;50.272;19.026;2024-01-11T16:00:42;98867.00;;;1.40;56.57
34081;BME280;20358;50.272;19.026;2024-01-11T16:03:51;98884.22;;;1.32;56.82
34081;BME280;20358;50.272;19.026;2024-01-11T16:06:57;98881.63;;;1.30;56.86
34081;BME280;20358;50.272;19.026;2024-01-11T16:10:06;98877.38;;;1.21;57.39
34081;BME280;20358;50.272;19.026;2024-01-11T16:13:13;98869.72;;;1.05;57.58
34081;BME280;20358;50.272;19.026;2024-01-11T16:16:20;98888.50;;;1.22;57.26
34081;BME280;20358;50.272;19.026;2024-01-11T16:19:28;98880.00;;;1.11;57.65
34081;BME280;20358;50.272;19.026;2024-01-11T16:22:37;98885.13;;;1.14;58.13
34081;BME280;20358;50.272;19.026;2024-01-11T16:25:44;98886.81;;;1.21;58.16
34081;BME280;20358;50.272;19.026;2024-01-11T16:28:51;98881.66;;;1.24;57.96
34081;BME280;20358;50.272;19.026;2024-01-11T16:31:57;98887.63;;;1.40;58.14
34081;BME280;20358;50.272;19.026;2024-01-11T16:35:08;98883.31;;;1.33;58.30
34081;BME280;20358;50.272;19.026;2024-01-11T16:38:14;98894.50;;;1.35;58.09
34081;BME280;20358;50.272;19.026;2024-01-11T16:41:21;98891.03;;;1.42;57.97